createdAt,value
2019-02-08T00:03:23.596Z,8.50
2019-02-08T00:08:31.036Z,8.60
2019-02-08T00:13:38.430Z,8.50
2019-02-08T00:18:44.757Z,8.50
2019-02-08T00:23:54.490Z,8.50
2019-02-08T00:29:01.284Z,8.50
2019-02-08T00:34:08.509Z,8.50
2019-02-08T00:39:15.138Z,8.50
2019-02-08T00:44:23.104Z,8.70
2019-02-08T00:49:29.231Z,8.70
2019-02-08T00:54:36.423Z,8.80
2019-02-08T00:59:43.723Z,8.80
2019-02-08T01:04:51.406Z,8.20
2019-02-08T01:09:58.832Z,8.10
2019-02-08T01:15:06.984Z,8.10
2019-02-08T01:20:16.019Z,8.10
2019-02-08T01:25:25.327Z,8.20
2019-02-08T01:30:33.313Z,8.40
2019-02-08T01:35:39.497Z,8.40
2019-02-08T01:40:46.150Z,8.30
2019-02-08T01:45:53.913Z,8.30
2019-02-08T01:51:01.826Z,8.20
2019-02-08T01:56:10.562Z,8.10
2019-02-08T02:01:18.291Z,8.10
2019-02-08T02:06:24.570Z,8.00
2019-02-08T02:11:32.486Z,8.00
2019-02-08T02:16:39.839Z,8.00
2019-02-08T02:21:47.534Z,8.00
2019-02-08T02:26:54.275Z,7.90
2019-02-08T02:32:02.067Z,7.90
2019-02-08T02:37:09.318Z,7.80
2019-02-08T02:42:16.509Z,7.70
2019-02-08T02:47:28.118Z,7.80
2019-02-08T02:52:36.645Z,7.80
2019-02-08T02:57:43.655Z,7.80
2019-02-08T03:02:51.206Z,7.80
2019-02-08T03:07:58.915Z,7.90
2019-02-08T03:13:05.394Z,7.90
2019-02-08T03:18:14.606Z,7.90
2019-02-08T03:23:22.545Z,7.90
2019-02-08T03:28:29.554Z,7.90
2019-02-08T03:33:36.656Z,8.00
2019-02-08T03:38:44.641Z,7.80
2019-02-08T03:43:52.676Z,7.50
2019-02-08T03:49:00.160Z,7.60
2019-02-08T03:54:06.662Z,7.90
2019-02-08T03:59:14.181Z,8.00
2019-02-08T04:04:22.004Z,8.70
2019-02-08T04:09:28.070Z,9.00
2019-02-08T04:14:36.211Z,8.80
2019-02-08T04:19:43.907Z,8.70
2019-02-08T04:24:51.752Z,8.20
2019-02-08T04:29:59.444Z,7.60
2019-02-08T04:35:06.786Z,7.50
2019-02-08T04:40:16.077Z,7.70
2019-02-08T04:45:24.116Z,7.50
2019-02-08T04:50:32.883Z,7.40
2019-02-08T04:55:39.147Z,7.20
2019-02-08T05:00:45.903Z,7.10
2019-02-08T05:05:54.647Z,7.00
2019-02-08T05:11:02.292Z,6.90
2019-02-08T05:16:08.530Z,7.10
2019-02-08T05:21:17.035Z,7.00
2019-02-08T05:26:24.978Z,6.90
2019-02-08T05:31:32.615Z,6.90
2019-02-08T05:36:39.954Z,6.80
2019-02-08T05:41:47.327Z,6.80
2019-02-08T05:46:54.102Z,6.80
2019-02-08T05:52:01.805Z,6.50
2019-02-08T05:57:10.067Z,6.60
2019-02-08T06:02:17.386Z,6.80
2019-02-08T06:07:24.514Z,6.40
2019-02-08T06:12:31.696Z,7.70
2019-02-08T06:17:38.899Z,9.20
2019-02-08T06:22:46.778Z,9.30
2019-02-08T06:27:54.367Z,9.30
2019-02-08T06:33:02.343Z,9.30
2019-02-08T06:38:09.637Z,9.00
2019-02-08T06:43:16.583Z,8.70
2019-02-08T06:48:23.937Z,8.50
2019-02-08T06:53:30.381Z,8.30
2019-02-08T06:58:53.938Z,8.60
2019-02-08T07:04:18.421Z,9.00
2019-02-08T07:09:52.608Z,9.20
2019-02-08T07:15:24.137Z,9.40
2019-02-08T07:20:48.719Z,9.40
2019-02-08T07:26:13.528Z,9.00
2019-02-08T07:31:39.931Z,8.70
2019-02-08T07:36:57.391Z,8.90
2019-02-08T07:42:23.026Z,9.00
2019-02-08T07:47:37.006Z,9.30
2019-02-08T07:53:01.339Z,9.30
2019-02-08T07:58:41.540Z,9.30
2019-02-08T08:04:01.511Z,9.30
2019-02-08T08:09:49.916Z,9.50
2019-02-08T08:15:12.166Z,9.70
2019-02-08T08:20:44.734Z,10.20
2019-02-08T08:26:13.954Z,10.60
2019-02-08T08:31:26.368Z,11.00
2019-02-08T08:37:32.417Z,11.30
2019-02-08T08:43:15.158Z,11.40
2019-02-08T08:48:56.331Z,11.70
2019-02-08T08:54:44.236Z,11.80
2019-02-08T09:00:35.818Z,12.00
2019-02-08T09:06:19.894Z,12.10
2019-02-08T09:12:05.186Z,12.40
2019-02-08T09:18:00.198Z,12.70
2019-02-08T09:23:50.748Z,13.10
2019-02-08T09:29:43.534Z,13.20
2019-02-08T09:35:18.283Z,13.00
2019-02-08T09:41:14.307Z,13.10
2019-02-08T09:47:06.058Z,13.30
2019-02-08T09:52:53.536Z,13.40
2019-02-08T09:58:36.408Z,13.40
2019-02-08T10:04:54.463Z,13.60
2019-02-08T10:10:50.584Z,13.80
2019-02-08T10:17:05.757Z,13.80
2019-02-08T10:22:56.833Z,14.10
2019-02-08T10:28:35.516Z,14.30
2019-02-08T10:34:22.550Z,14.50
2019-02-08T10:40:05.609Z,14.60
2019-02-08T10:46:01.906Z,14.90
2019-02-08T10:51:55.118Z,15.30
2019-02-08T10:57:38.323Z,15.50
2019-02-08T11:03:25.912Z,15.60
2019-02-08T11:09:09.290Z,15.70
2019-02-08T11:14:56.898Z,16.00
2019-02-08T11:20:06.014Z,16.80
2019-02-08T11:25:17.998Z,16.70
2019-02-08T11:30:24.471Z,16.90
2019-02-08T11:35:32.229Z,16.70
2019-02-08T11:40:39.861Z,16.80
2019-02-08T11:45:46.588Z,17.70
2019-02-08T11:50:54.610Z,17.80
2019-02-08T11:56:01.035Z,17.90
2019-02-08T12:01:07.075Z,17.70
2019-02-08T12:06:15.084Z,17.80
2019-02-08T12:11:23.219Z,17.80
2019-02-08T12:16:29.421Z,17.80
2019-02-08T12:21:36.897Z,17.70
2019-02-08T12:26:43.912Z,17.50
2019-02-08T12:31:50.446Z,16.50
2019-02-08T12:36:57.714Z,16.40
2019-02-08T12:42:06.518Z,16.50
2019-02-08T12:47:13.114Z,16.10
2019-02-08T12:52:20.404Z,16.20
2019-02-08T12:57:29.288Z,16.80
2019-02-08T13:02:36.568Z,17.10
2019-02-08T13:07:44.532Z,17.00
2019-02-08T13:12:51.923Z,17.40
2019-02-08T13:17:58.552Z,17.30
2019-02-08T13:23:04.575Z,17.10
2019-02-08T13:28:11.353Z,17.00
2019-02-08T13:33:17.882Z,17.30
2019-02-08T13:38:24.139Z,16.60
2019-02-08T13:43:30.362Z,16.40
2019-02-08T13:48:37.630Z,16.20
2019-02-08T13:53:43.999Z,16.20
2019-02-08T13:58:51.789Z,16.50
2019-02-08T14:03:58.312Z,16.70
2019-02-08T14:09:08.430Z,17.50
2019-02-08T14:14:14.883Z,17.60
2019-02-08T14:19:22.306Z,17.60
2019-02-08T14:24:30.188Z,17.60
2019-02-08T14:29:37.764Z,18.30
2019-02-08T14:34:44.129Z,18.00
2019-02-08T14:39:53.836Z,17.40
2019-02-08T14:45:03.290Z,17.40
2019-02-08T14:50:14.954Z,17.00
2019-02-08T14:55:23.149Z,17.20
2019-02-08T15:00:31.039Z,17.70
2019-02-08T15:05:39.659Z,17.30
2019-02-08T15:10:49.947Z,17.30
2019-02-08T15:15:57.278Z,16.90
2019-02-08T15:21:06.707Z,16.90
2019-02-08T15:26:13.866Z,16.60
2019-02-08T15:31:21.682Z,16.70
2019-02-08T15:36:32.045Z,16.50
2019-02-08T15:41:39.334Z,16.30
2019-02-08T15:46:46.770Z,16.30
2019-02-08T15:51:54.010Z,16.40
2019-02-08T15:57:01.911Z,17.20
2019-02-08T16:02:09.840Z,17.40
2019-02-08T16:07:18.072Z,16.20
2019-02-08T16:12:26.047Z,16.60
2019-02-08T16:17:34.556Z,16.80
2019-02-08T16:22:42.640Z,17.00
2019-02-08T16:27:50.223Z,16.60
2019-02-08T16:32:56.903Z,16.20
2019-02-08T16:38:05.211Z,15.90
2019-02-08T16:43:13.071Z,15.10
2019-02-08T16:48:22.736Z,14.50
2019-02-08T16:53:32.027Z,14.20
2019-02-08T16:58:40.258Z,14.10
2019-02-08T17:03:47.660Z,14.00
2019-02-08T17:08:57.436Z,13.90
2019-02-08T17:14:04.983Z,13.80
2019-02-08T17:19:13.667Z,13.80
2019-02-08T17:24:21.435Z,13.60
2019-02-08T17:29:32.103Z,13.70
2019-02-08T17:34:39.874Z,13.50
2019-02-08T17:39:49.758Z,13.70
2019-02-08T17:45:00.609Z,13.60
2019-02-08T17:50:08.642Z,13.40
2019-02-08T17:55:17.401Z,13.20
2019-02-08T18:00:51.419Z,13.10
2019-02-08T18:05:58.934Z,13.00
2019-02-08T18:11:05.235Z,12.70
2019-02-08T18:16:12.815Z,12.50
2019-02-08T18:21:18.928Z,12.10
2019-02-08T18:26:24.959Z,11.90
2019-02-08T18:31:33.150Z,11.80
2019-02-08T18:36:40.951Z,11.10
2019-02-08T18:41:48.597Z,11.10
2019-02-08T18:46:54.859Z,11.10
2019-02-08T18:52:02.986Z,11.20
2019-02-08T18:57:10.236Z,11.20
2019-02-08T19:02:16.532Z,10.90
2019-02-08T19:07:24.067Z,10.90
2019-02-08T19:12:31.867Z,11.00
2019-02-08T19:17:39.465Z,10.90
2019-02-08T19:22:46.143Z,10.40
2019-02-08T19:27:54.574Z,10.50
2019-02-08T19:33:01.272Z,10.40
2019-02-08T19:38:09.668Z,10.40
2019-02-08T19:43:17.293Z,10.20
2019-02-08T19:48:24.322Z,10.30
2019-02-08T19:53:32.110Z,10.40
2019-02-08T19:58:41.458Z,10.50
2019-02-08T20:03:50.501Z,10.40
2019-02-08T20:09:00.237Z,10.70
2019-02-08T20:14:06.468Z,10.50
2019-02-08T20:19:14.220Z,10.40
2019-02-08T20:24:24.303Z,10.40
2019-02-08T20:29:33.800Z,10.70
2019-02-08T20:34:41.105Z,11.00
2019-02-08T20:39:48.349Z,11.10
2019-02-08T20:44:55.623Z,11.00
2019-02-08T20:50:02.480Z,11.00
2019-02-08T20:55:10.506Z,10.70
2019-02-08T21:00:32.761Z,10.90
2019-02-08T21:05:40.823Z,11.00
2019-02-08T21:10:49.048Z,11.00
2019-02-08T21:15:56.061Z,11.00
2019-02-08T21:21:03.967Z,10.90
2019-02-08T21:26:11.799Z,10.90
2019-02-08T21:31:19.780Z,11.00
2019-02-08T21:36:27.485Z,10.90
2019-02-08T21:41:35.018Z,11.00
2019-02-08T21:46:44.539Z,11.00
2019-02-08T21:51:52.198Z,10.70
2019-02-08T21:57:00.397Z,10.40
2019-02-08T22:02:07.695Z,10.50
2019-02-08T22:07:15.651Z,10.30
2019-02-08T22:12:23.730Z,9.80
2019-02-08T22:17:32.658Z,9.90
2019-02-08T22:22:39.747Z,9.50
2019-02-08T22:27:46.917Z,9.60
2019-02-08T22:32:57.909Z,9.60
2019-02-08T22:38:06.473Z,9.60
2019-02-08T22:43:14.909Z,10.00
2019-02-08T22:48:22.505Z,10.10
2019-02-08T22:53:28.674Z,10.30
2019-02-08T22:58:36.367Z,10.50
2019-02-08T23:03:43.260Z,10.50
2019-02-08T23:08:50.952Z,10.50
2019-02-08T23:13:58.820Z,10.80
2019-02-08T23:19:06.335Z,11.60
2019-02-08T23:24:14.083Z,11.40
2019-02-08T23:29:29.711Z,11.30
2019-02-08T23:34:31.267Z,10.90
2019-02-08T23:39:37.787Z,10.70
2019-02-08T23:44:45.851Z,10.40
2019-02-08T23:49:53.774Z,10.00
2019-02-08T23:55:01.487Z,9.90
